sensor_id;sensor_type;location;lat;lon;timestamp;pressure;altitude;pressure_sealevel;temperature;humidity
12636;BME280;6383;50.830;7.210;2023-05-19T00:00:10;101707.00;;;15.31;51.00
12636;BME280;6383;50.830;7.210;2023-05-19T00:02:40;101709.03;;;15.25;51.48
12636;BME280;6383;50.830;7.210;2023-05-19T00:05:09;101704.75;;;15.19;50.99
12636;BME280;6383;50.830;7.210;2023-05-19T00:07:42;101709.22;;;15.15;51.11
12636;BME280;6383;50.830;7.210;2023-05-19T00:10:11;101704.66;;;15.10;51.38
12636;BME280;6383;50.830;7.210;2023-05-19T00:12:40;101701.19;;;15.05;51.33
12636;BME280;6383;50.830;7.210;2023-05-19T00:15:10;101697.41;;;15.01;51.78
12636;BME280;6383;50.830;7.210;2023-05-19T00:17:39;101705.47;;;14.97;51.93
12636;BME280;6383;50.830;7.210;2023-05-19T00:20:08;101697.00;;;14.94;52.09
12636;BME280;6383;50.830;7.210;2023-05-19T00:22:36;101703.38;;;14.89;52.64
12636;BME280;6383;50.830;7.210;2023-05-19T00:25:08;101693.84;;;14.87;52.38
12636;BME280;6383;50.830;7.210;2023-05-19T00:27:37;101699.94;;;14.84;52.86
12636;BME280;6383;50.830;7.210;2023-05-19T00:30:06;101695.06;;;14.80;53.16
12636;BME280;6383;50.830;7.210;2023-05-19T00:32:35;101692.09;;;14.77;52.43
12636;BME280;6383;50.830;7.210;2023-05-19T00:35:03;101694.31;;;14.75;52.76
12636;BME280;6383;50.830;7.210;2023-05-19T00:37:31;101697.66;;;14.72;53.14
12636;BME280;6383;50.830;7.210;2023-05-19T00:39:59;101694.41;;;14.70;53.03
12636;BME280;6383;50.830;7.210;2023-05-19T00:42:31;101701.63;;;14.66;53.31
12636;BME280;6383;50.830;7.210;2023-05-19T00:45:00;101695.09;;;14.62;53.74
12636;BME280;6383;50.830;7.210;2023-05-19T00:47:29;101689.69;;;14.57;53.73
12636;BME280;6383;50.830;7.210;2023-05-19T00:49:57;101705.13;;;14.53;53.98
12636;BME280;6383;50.830;7.210;2023-05-19T00:52:26;101698.31;;;14.50;54.26
12636;BME280;6383;50.830;7.210;2023-05-19T00:54:55;101699.72;;;14.48;53.31
12636;BME280;6383;50.830;7.210;2023-05-19T00:57:23;101703.06;;;14.44;53.94
12636;BME280;6383;50.830;7.210;2023-05-19T00:59:55;101700.91;;;14.41;53.29
12636;BME280;6383;50.830;7.210;2023-05-19T01:02:22;101704.22;;;14.38;53.58
12636;BME280;6383;50.830;7.210;2023-05-19T01:04:51;101711.94;;;14.36;52.82
12636;BME280;6383;50.830;7.210;2023-05-19T01:07:21;101701.56;;;14.33;53.86
12636;BME280;6383;50.830;7.210;2023-05-19T01:09:51;101707.63;;;14.30;53.53
12636;BME280;6383;50.830;7.210;2023-05-19T01:12:18;101711.78;;;14.28;53.41
12636;BME280;6383;50.830;7.210;2023-05-19T01:14:47;101701.72;;;14.23;53.96
12636;BME280;6383;50.830;7.210;2023-05-19T01:17:22;101707.78;;;14.20;53.55
12636;BME280;6383;50.830;7.210;2023-05-19T01:19:58;101698.25;;;14.18;53.38
12636;BME280;6383;50.830;7.210;2023-05-19T01:22:48;101706.75;;;14.16;54.11
12636;BME280;6383;50.830;7.210;2023-05-19T01:25:48;101695.56;;;14.12;53.73
12636;BME280;6383;50.830;7.210;2023-05-19T01:29:02;101695.97;;;14.06;53.21
12636;BME280;6383;50.830;7.210;2023-05-19T01:31:35;101693.81;;;14.03;53.71
12636;BME280;6383;50.830;7.210;2023-05-19T01:34:05;101690.03;;;13.99;53.61
12636;BME280;6383;50.830;7.210;2023-05-19T01:36:35;101694.16;;;13.96;53.30
12636;BME280;6383;50.830;7.210;2023-05-19T01:39:03;101695.88;;;13.92;52.71
12636;BME280;6383;50.830;7.210;2023-05-19T01:41:31;101691.28;;;13.88;52.90
12636;BME280;6383;50.830;7.210;2023-05-19T01:44:01;101695.41;;;13.85;53.26
12636;BME280;6383;50.830;7.210;2023-05-19T01:46:30;101696.00;;;13.82;53.83
12636;BME280;6383;50.830;7.210;2023-05-19T01:49:01;101690.00;;;13.80;53.53
12636;BME280;6383;50.830;7.210;2023-05-19T01:51:29;101692.25;;;13.78;53.79
12636;BME280;6383;50.830;7.210;2023-05-19T01:53:57;101690.91;;;13.75;53.05
12636;BME280;6383;50.830;7.210;2023-05-19T01:56:33;101699.69;;;13.72;54.00
12636;BME280;6383;50.830;7.210;2023-05-19T01:59:13;101698.66;;;13.68;54.26
12636;BME280;6383;50.830;7.210;2023-05-19T02:01:50;101697.31;;;13.66;54.76
12636;BME280;6383;50.830;7.210;2023-05-19T02:04:28;101701.75;;;13.62;54.45
12636;BME280;6383;50.830;7.210;2023-05-19T02:07:04;101700.94;;;13.61;53.92
12636;BME280;6383;50.830;7.210;2023-05-19T02:09:40;101698.50;;;13.60;54.50
12636;BME280;6383;50.830;7.210;2023-05-19T02:12:18;101699.88;;;13.57;54.00
12636;BME280;6383;50.830;7.210;2023-05-19T02:14:49;101697.72;;;13.54;54.72
12636;BME280;6383;50.830;7.210;2023-05-19T02:17:19;101703.50;;;13.53;54.44
12636;BME280;6383;50.830;7.210;2023-05-19T02:19:50;101709.56;;;13.50;54.41
12636;BME280;6383;50.830;7.210;2023-05-19T02:22:17;101706.84;;;13.50;54.60
12636;BME280;6383;50.830;7.210;2023-05-19T02:24:46;101712.59;;;13.48;54.18
12636;BME280;6383;50.830;7.210;2023-05-19T02:27:17;101703.88;;;13.46;54.70
12636;BME280;6383;50.830;7.210;2023-05-19T02:29:46;101710.44;;;13.45;54.59
12636;BME280;6383;50.830;7.210;2023-05-19T02:32:14;101703.91;;;13.41;54.82
12636;BME280;6383;50.830;7.210;2023-05-19T02:34:42;101705.84;;;13.40;54.26
12636;BME280;6383;50.830;7.210;2023-05-19T02:37:11;101707.84;;;13.35;53.75
12636;BME280;6383;50.830;7.210;2023-05-19T02:39:40;101708.97;;;13.29;54.29
12636;BME280;6383;50.830;7.210;2023-05-19T02:42:08;101704.09;;;13.26;53.22
12636;BME280;6383;50.830;7.210;2023-05-19T02:44:38;101704.22;;;13.16;53.59
12636;BME280;6383;50.830;7.210;2023-05-19T02:47:07;101698.22;;;13.08;53.78
12636;BME280;6383;50.830;7.210;2023-05-19T02:49:34;101705.88;;;13.06;53.48
12636;BME280;6383;50.830;7.210;2023-05-19T02:52:04;101697.19;;;13.04;53.84
12636;BME280;6383;50.830;7.210;2023-05-19T02:54:34;101695.84;;;13.02;53.72
12636;BME280;6383;50.830;7.210;2023-05-19T02:57:03;101692.59;;;13.00;53.47
12636;BME280;6383;50.830;7.210;2023-05-19T02:59:31;101690.13;;;12.98;53.49
12636;BME280;6383;50.830;7.210;2023-05-19T03:02:01;101701.34;;;12.97;53.35
12636;BME280;6383;50.830;7.210;2023-05-19T03:04:29;101697.28;;;12.94;54.06
12636;BME280;6383;50.830;7.210;2023-05-19T03:06:57;101701.72;;;12.90;53.80
12636;BME280;6383;50.830;7.210;2023-05-19T03:09:25;101695.19;;;12.86;53.44
12636;BME280;6383;50.830;7.210;2023-05-19T03:11:54;101690.31;;;12.78;53.54
12636;BME280;6383;50.830;7.210;2023-05-19T03:14:23;101690.97;;;12.70;54.09
12636;BME280;6383;50.830;7.210;2023-05-19T03:16:52;101682.22;;;12.68;53.76
12636;BME280;6383;50.830;7.210;2023-05-19T03:19:21;101680.31;;;12.68;54.07
12636;BME280;6383;50.830;7.210;2023-05-19T03:21:50;101682.22;;;12.68;53.86
12636;BME280;6383;50.830;7.210;2023-05-19T03:24:18;101684.44;;;12.66;54.36
12636;BME280;6383;50.830;7.210;2023-05-19T03:26:47;101680.06;;;12.65;53.60
12636;BME280;6383;50.830;7.210;2023-05-19T03:29:18;101674.88;;;12.63;54.30
12636;BME280;6383;50.830;7.210;2023-05-19T03:31:48;101679.03;;;12.61;54.05
12636;BME280;6383;50.830;7.210;2023-05-19T03:34:17;101675.78;;;12.59;53.98
12636;BME280;6383;50.830;7.210;2023-05-19T03:36:46;101674.41;;;12.56;54.42
12636;BME280;6383;50.830;7.210;2023-05-19T03:39:17;101681.25;;;12.54;54.30
12636;BME280;6383;50.830;7.210;2023-05-19T03:41:44;101683.47;;;12.52;54.65
12636;BME280;6383;50.830;7.210;2023-05-19T03:44:13;101687.28;;;12.51;54.54
12636;BME280;6383;50.830;7.210;2023-05-19T03:46:43;101684.03;;;12.49;54.57
12636;BME280;6383;50.830;7.210;2023-05-19T03:49:12;101689.78;;;12.47;55.08
12636;BME280;6383;50.830;7.210;2023-05-19T03:51:41;101688.72;;;12.43;54.78
12636;BME280;6383;50.830;7.210;2023-05-19T03:54:09;101701.34;;;12.34;54.18
12636;BME280;6383;50.830;7.210;2023-05-19T03:56:38;101697.09;;;12.18;55.04
12636;BME280;6383;50.830;7.210;2023-05-19T03:59:07;101694.19;;;12.04;55.95
12636;BME280;6383;50.830;7.210;2023-05-19T04:01:37;101692.63;;;11.93;55.67
12636;BME280;6383;50.830;7.210;2023-05-19T04:04:07;101695.66;;;11.86;56.12
12636;BME280;6383;50.830;7.210;2023-05-19T04:06:34;101690.50;;;11.85;56.93
12636;BME280;6383;50.830;7.210;2023-05-19T04:09:10;101690.44;;;11.90;56.43
12636;BME280;6383;50.830;7.210;2023-05-19T04:11:38;101691.78;;;11.92;55.76
12636;BME280;6383;50.830;7.210;2023-05-19T04:14:07;101697.22;;;11.97;55.88
12636;BME280;6383;50.830;7.210;2023-05-19T04:16:36;101701.59;;;11.98;55.81
12636;BME280;6383;50.830;7.210;2023-05-19T04:19:06;101693.41;;;11.98;55.66
12636;BME280;6383;50.830;7.210;2023-05-19T04:21:34;101692.31;;;11.99;56.05
12636;BME280;6383;50.830;7.210;2023-05-19T04:24:01;101696.69;;;11.95;55.18
12636;BME280;6383;50.830;7.210;2023-05-19T04:26:32;101690.16;;;11.91;55.79
12636;BME280;6383;50.830;7.210;2023-05-19T04:29:00;101693.75;;;11.87;56.30
12636;BME280;6383;50.830;7.210;2023-05-19T04:31:30;101693.50;;;11.83;56.43
12636;BME280;6383;50.830;7.210;2023-05-19T04:34:00;101694.59;;;11.82;56.23
12636;BME280;6383;50.830;7.210;2023-05-19T04:36:30;101698.69;;;11.85;56.63
12636;BME280;6383;50.830;7.210;2023-05-19T04:38:58;101702.44;;;11.89;56.86
12636;BME280;6383;50.830;7.210;2023-05-19T04:41:32;101688.78;;;11.94;57.09
12636;BME280;6383;50.830;7.210;2023-05-19T04:44:01;101686.03;;;11.99;56.79
12636;BME280;6383;50.830;7.210;2023-05-19T04:46:30;101693.34;;;12.04;57.17
12636;BME280;6383;50.830;7.210;2023-05-19T04:48:58;101695.25;;;12.08;56.97
12636;BME280;6383;50.830;7.210;2023-05-19T04:51:34;101691.69;;;12.13;57.01
12636;BME280;6383;50.830;7.210;2023-05-19T04:54:02;101697.63;;;12.20;57.29
12636;BME280;6383;50.830;7.210;2023-05-19T04:56:30;101693.50;;;12.22;56.80
12636;BME280;6383;50.830;7.210;2023-05-19T04:59:00;101689.13;;;12.26;56.99
12636;BME280;6383;50.830;7.210;2023-05-19T05:01:30;101694.31;;;12.28;57.29
12636;BME280;6383;50.830;7.210;2023-05-19T05:04:00;101705.75;;;12.30;58.05
12636;BME280;6383;50.830;7.210;2023-05-19T05:06:28;101705.97;;;12.33;58.06
12636;BME280;6383;50.830;7.210;2023-05-19T05:08:58;101701.59;;;12.38;57.97
12636;BME280;6383;50.830;7.210;2023-05-19T05:11:28;101706.22;;;12.42;57.95
12636;BME280;6383;50.830;7.210;2023-05-19T05:14:00;101699.38;;;12.45;57.49
12636;BME280;6383;50.830;7.210;2023-05-19T05:16:30;101699.59;;;12.48;57.60
12636;BME280;6383;50.830;7.210;2023-05-19T05:18:58;101693.56;;;12.51;57.79
12636;BME280;6383;50.830;7.210;2023-05-19T05:21:27;101700.91;;;12.56;57.79
12636;BME280;6383;50.830;7.210;2023-05-19T05:23:56;101704.19;;;12.58;57.15
12636;BME280;6383;50.830;7.210;2023-05-19T05:26:29;101702.47;;;12.62;57.50
12636;BME280;6383;50.830;7.210;2023-05-19T05:29:04;101699.19;;;12.65;57.82
12636;BME280;6383;50.830;7.210;2023-05-19T05:31:33;101700.25;;;12.69;57.56
12636;BME280;6383;50.830;7.210;2023-05-19T05:34:02;101702.13;;;12.74;57.73
12636;BME280;6383;50.830;7.210;2023-05-19T05:36:45;101696.88;;;12.77;57.92
12636;BME280;6383;50.830;7.210;2023-05-19T05:39:13;101694.69;;;12.79;57.81
12636;BME280;6383;50.830;7.210;2023-05-19T05:41:43;101702.88;;;12.79;57.37
12636;BME280;6383;50.830;7.210;2023-05-19T05:44:23;101705.03;;;12.82;58.53
12636;BME280;6383;50.830;7.210;2023-05-19T05:46:52;101699.00;;;12.85;57.42
12636;BME280;6383;50.830;7.210;2023-05-19T05:49:21;101690.53;;;12.87;58.26
12636;BME280;6383;50.830;7.210;2023-05-19T05:51:51;101694.81;;;12.93;58.30
12636;BME280;6383;50.830;7.210;2023-05-19T05:54:31;101690.66;;;13.00;57.79
12636;BME280;6383;50.830;7.210;2023-05-19T05:57:11;101682.91;;;13.07;57.09
12636;BME280;6383;50.830;7.210;2023-05-19T05:59:39;101691.91;;;13.13;57.60
12636;BME280;6383;50.830;7.210;2023-05-19T06:02:25;101695.16;;;13.20;57.03
12636;BME280;6383;50.830;7.210;2023-05-19T06:04:53;101692.88;;;13.27;57.41
12636;BME280;6383;50.830;7.210;2023-05-19T06:07:21;101699.63;;;13.35;57.06
12636;BME280;6383;50.830;7.210;2023-05-19T06:09:50;101690.25;;;13.41;56.69
12636;BME280;6383;50.830;7.210;2023-05-19T06:12:19;101691.81;;;13.47;55.97
12636;BME280;6383;50.830;7.210;2023-05-19T06:14:49;101695.00;;;13.54;55.84
12636;BME280;6383;50.830;7.210;2023-05-19T06:17:18;101694.66;;;13.61;56.06
12636;BME280;6383;50.830;7.210;2023-05-19T06:19:47;101687.50;;;13.65;55.50
12636;BME280;6383;50.830;7.210;2023-05-19T06:22:15;101687.94;;;13.72;55.49
12636;BME280;6383;50.830;7.210;2023-05-19T06:24:44;101690.31;;;13.79;55.29
12636;BME280;6383;50.830;7.210;2023-05-19T06:27:13;101688.03;;;13.86;54.85
12636;BME280;6383;50.830;7.210;2023-05-19T06:29:43;101680.56;;;13.91;54.61
12636;BME280;6383;50.830;7.210;2023-05-19T06:32:12;101678.25;;;13.98;54.70
12636;BME280;6383;50.830;7.210;2023-05-19T06:34:41;101682.03;;;14.02;54.73
12636;BME280;6383;50.830;7.210;2023-05-19T06:37:09;101678.94;;;14.09;55.05
12636;BME280;6383;50.830;7.210;2023-05-19T06:39:41;101680.47;;;14.15;54.73
12636;BME280;6383;50.830;7.210;2023-05-19T06:42:10;101686.13;;;14.24;54.80
12636;BME280;6383;50.830;7.210;2023-05-19T06:44:39;101669.81;;;14.32;53.87
12636;BME280;6383;50.830;7.210;2023-05-19T06:47:10;101667.81;;;14.38;54.44
12636;BME280;6383;50.830;7.210;2023-05-19T06:49:38;101670.47;;;14.43;54.29
12636;BME280;6383;50.830;7.210;2023-05-19T06:52:08;101673.66;;;14.50;54.57
12636;BME280;6383;50.830;7.210;2023-05-19T06:54:37;101668.59;;;14.57;53.80
12636;BME280;6383;50.830;7.210;2023-05-19T06:57:12;101672.88;;;14.63;54.59
12636;BME280;6383;50.830;7.210;2023-05-19T06:59:41;101673.63;;;14.69;53.66
12636;BME280;6383;50.830;7.210;2023-05-19T07:02:14;101667.81;;;14.70;53.94
12636;BME280;6383;50.830;7.210;2023-05-19T07:04:43;101669.88;;;14.78;54.37
12636;BME280;6383;50.830;7.210;2023-05-19T07:07:12;101674.94;;;14.85;53.55
12636;BME280;6383;50.830;7.210;2023-05-19T07:09:41;101668.78;;;14.93;53.49
12636;BME280;6383;50.830;7.210;2023-05-19T07:12:10;101668.06;;;15.01;54.08
12636;BME280;6383;50.830;7.210;2023-05-19T07:14:39;101663.84;;;15.09;53.65
12636;BME280;6383;50.830;7.210;2023-05-19T07:17:11;101662.59;;;15.15;53.40
12636;BME280;6383;50.830;7.210;2023-05-19T07:19:40;101659.47;;;15.22;52.79
12636;BME280;6383;50.830;7.210;2023-05-19T07:22:13;101650.84;;;15.28;52.64
12636;BME280;6383;50.830;7.210;2023-05-19T07:24:42;101650.94;;;15.37;52.90
12636;BME280;6383;50.830;7.210;2023-05-19T07:27:11;101653.56;;;15.42;52.54
12636;BME280;6383;50.830;7.210;2023-05-19T07:29:40;101646.84;;;15.48;52.21
12636;BME280;6383;50.830;7.210;2023-05-19T07:32:09;101652.78;;;15.55;52.63
12636;BME280;6383;50.830;7.210;2023-05-19T07:34:40;101652.03;;;15.63;51.42
12636;BME280;6383;50.830;7.210;2023-05-19T07:37:09;101652.63;;;15.74;51.66
12636;BME280;6383;50.830;7.210;2023-05-19T07:39:38;101643.97;;;15.80;51.60
12636;BME280;6383;50.830;7.210;2023-05-19T07:42:12;101646.78;;;15.89;52.00
12636;BME280;6383;50.830;7.210;2023-05-19T07:44:41;101647.19;;;15.96;51.63
12636;BME280;6383;50.830;7.210;2023-05-19T07:47:10;101647.25;;;16.05;51.14
12636;BME280;6383;50.830;7.210;2023-05-19T07:49:40;101642.97;;;16.12;50.87
12636;BME280;6383;50.830;7.210;2023-05-19T07:52:10;101639.13;;;16.22;50.84
12636;BME280;6383;50.830;7.210;2023-05-19T07:54:37;101635.66;;;16.30;51.10
12636;BME280;6383;50.830;7.210;2023-05-19T07:57:05;101634.91;;;16.38;50.46
12636;BME280;6383;50.830;7.210;2023-05-19T07:59:32;101628.16;;;16.44;50.35
12636;BME280;6383;50.830;7.210;2023-05-19T08:01:59;101632.06;;;16.52;49.99
12636;BME280;6383;50.830;7.210;2023-05-19T08:04:28;101629.69;;;16.59;47.36
12636;BME280;6383;50.830;7.210;2023-05-19T08:06:59;101632.81;;;16.66;47.68
12636;BME280;6383;50.830;7.210;2023-05-19T08:09:28;101632.41;;;16.73;49.19
12636;BME280;6383;50.830;7.210;2023-05-19T08:11:55;101629.16;;;16.79;49.47
12636;BME280;6383;50.830;7.210;2023-05-19T08:14:23;101627.28;;;16.88;49.69
12636;BME280;6383;50.830;7.210;2023-05-19T08:16:53;101622.44;;;16.94;47.79
12636;BME280;6383;50.830;7.210;2023-05-19T08:19:22;101622.00;;;17.01;47.05
12636;BME280;6383;50.830;7.210;2023-05-19T08:21:51;101616.03;;;17.07;46.76
12636;BME280;6383;50.830;7.210;2023-05-19T08:24:21;101613.31;;;17.16;47.74
12636;BME280;6383;50.830;7.210;2023-05-19T08:26:51;101609.75;;;17.24;47.33
12636;BME280;6383;50.830;7.210;2023-05-19T08:29:20;101606.88;;;17.29;46.30
12636;BME280;6383;50.830;7.210;2023-05-19T08:31:49;101605.59;;;17.35;46.55
12636;BME280;6383;50.830;7.210;2023-05-19T08:34:19;101604.47;;;17.45;46.26
12636;BME280;6383;50.830;7.210;2023-05-19T08:36:49;101607.09;;;17.50;46.05
12636;BME280;6383;50.830;7.210;2023-05-19T08:39:18;101604.66;;;17.57;46.42
12636;BME280;6383;50.830;7.210;2023-05-19T08:41:53;101595.66;;;17.65;47.53
12636;BME280;6383;50.830;7.210;2023-05-19T08:44:22;101601.28;;;17.69;45.45
12636;BME280;6383;50.830;7.210;2023-05-19T08:46:50;101593.38;;;17.76;45.98
12636;BME280;6383;50.830;7.210;2023-05-19T08:49:22;101599.19;;;17.83;44.16
12636;BME280;6383;50.830;7.210;2023-05-19T08:51:59;101580.75;;;17.92;43.60
12636;BME280;6383;50.830;7.210;2023-05-19T08:54:35;101577.97;;;18.01;43.65
12636;BME280;6383;50.830;7.210;2023-05-19T08:57:07;101574.09;;;18.10;42.32
12636;BME280;6383;50.830;7.210;2023-05-19T08:59:38;101580.38;;;18.19;41.72
12636;BME280;6383;50.830;7.210;2023-05-19T09:02:10;101572.88;;;18.28;42.27
12636;BME280;6383;50.830;7.210;2023-05-19T09:04:42;101566.69;;;18.40;42.80
12636;BME280;6383;50.830;7.210;2023-05-19T09:07:13;101570.41;;;18.53;41.70
12636;BME280;6383;50.830;7.210;2023-05-19T09:09:44;101563.41;;;18.64;41.17
12636;BME280;6383;50.830;7.210;2023-05-19T09:12:15;101550.72;;;18.72;40.63
12636;BME280;6383;50.830;7.210;2023-05-19T09:14:44;101562.22;;;18.82;40.29
12636;BME280;6383;50.830;7.210;2023-05-19T09:17:13;101553.06;;;18.90;40.19
12636;BME280;6383;50.830;7.210;2023-05-19T09:19:47;101555.59;;;19.04;39.71
12636;BME280;6383;50.830;7.210;2023-05-19T09:22:16;101553.25;;;19.15;38.16
12636;BME280;6383;50.830;7.210;2023-05-19T09:24:48;101547.84;;;19.27;39.59
12636;BME280;6383;50.830;7.210;2023-05-19T09:27:21;101546.16;;;19.34;38.34
12636;BME280;6383;50.830;7.210;2023-05-19T09:29:51;101546.78;;;19.40;38.08
12636;BME280;6383;50.830;7.210;2023-05-19T09:32:27;101550.59;;;19.48;37.90
12636;BME280;6383;50.830;7.210;2023-05-19T09:35:01;101534.81;;;19.57;37.59
12636;BME280;6383;50.830;7.210;2023-05-19T09:37:31;101529.22;;;19.65;36.79
12636;BME280;6383;50.830;7.210;2023-05-19T09:40:04;101538.22;;;19.75;37.75
12636;BME280;6383;50.830;7.210;2023-05-19T09:42:52;101541.25;;;19.82;37.19
12636;BME280;6383;50.830;7.210;2023-05-19T09:45:22;101530.09;;;19.90;37.84
12636;BME280;6383;50.830;7.210;2023-05-19T09:48:02;101526.81;;;19.97;36.35
12636;BME280;6383;50.830;7.210;2023-05-19T09:50:50;101531.31;;;20.01;36.05
12636;BME280;6383;50.830;7.210;2023-05-19T09:53:20;101526.22;;;20.03;37.21
12636;BME280;6383;50.830;7.210;2023-05-19T09:56:04;101527.84;;;20.04;36.25
12636;BME280;6383;50.830;7.210;2023-05-19T09:58:40;101521.66;;;20.07;37.60
12636;BME280;6383;50.830;7.210;2023-05-19T10:01:19;101525.81;;;20.14;36.61
12636;BME280;6383;50.830;7.210;2023-05-19T10:04:14;101528.00;;;20.20;37.24
12636;BME280;6383;50.830;7.210;2023-05-19T10:07:04;101528.16;;;20.24;36.64
12636;BME280;6383;50.830;7.210;2023-05-19T10:10:45;101533.66;;;20.24;36.44
12636;BME280;6383;50.830;7.210;2023-05-19T10:13:07;101528.16;;;20.24;37.16
12636;BME280;6383;50.830;7.210;2023-05-19T10:16:20;101517.28;;;20.19;35.16
12636;BME280;6383;50.830;7.210;2023-05-19T10:18:54;101527.91;;;20.17;36.66
12636;BME280;6383;50.830;7.210;2023-05-19T10:21:20;101522.72;;;20.15;36.53
12636;BME280;6383;50.830;7.210;2023-05-19T10:23:49;101515.25;;;20.16;36.46
12636;BME280;6383;50.830;7.210;2023-05-19T10:26:18;101519.16;;;20.15;36.48
12636;BME280;6383;50.830;7.210;2023-05-19T10:28:49;101512.13;;;20.17;36.54
12636;BME280;6383;50.830;7.210;2023-05-19T10:31:20;101507.84;;;20.20;35.02
12636;BME280;6383;50.830;7.210;2023-05-19T10:34:08;101502.13;;;20.25;35.38
12636;BME280;6383;50.830;7.210;2023-05-19T10:36:43;101503.06;;;20.29;36.04
12636;BME280;6383;50.830;7.210;2023-05-19T10:39:21;101510.66;;;20.32;35.61
12636;BME280;6383;50.830;7.210;2023-05-19T10:41:59;101505.13;;;20.32;35.56
12636;BME280;6383;50.830;7.210;2023-05-19T10:44:41;101501.22;;;20.33;34.17
12636;BME280;6383;50.830;7.210;2023-05-19T10:47:12;101494.88;;;20.32;34.63
12636;BME280;6383;50.830;7.210;2023-05-19T10:49:41;101510.47;;;20.37;34.51
12636;BME280;6383;50.830;7.210;2023-05-19T10:52:20;101506.78;;;20.45;34.61
12636;BME280;6383;50.830;7.210;2023-05-19T10:54:50;101503.91;;;20.54;34.62
12636;BME280;6383;50.830;7.210;2023-05-19T10:57:24;101504.97;;;20.61;35.37
12636;BME280;6383;50.830;7.210;2023-05-19T10:59:55;101492.16;;;20.69;35.42
12636;BME280;6383;50.830;7.210;2023-05-19T11:02:40;101488.03;;;20.75;34.34
12636;BME280;6383;50.830;7.210;2023-05-19T11:05:11;101491.34;;;20.81;34.18
12636;BME280;6383;50.830;7.210;2023-05-19T11:07:42;101488.00;;;20.87;35.52
12636;BME280;6383;50.830;7.210;2023-05-19T11:10:12;101483.94;;;20.97;34.97
12636;BME280;6383;50.830;7.210;2023-05-19T11:12:43;101494.09;;;21.05;32.67
12636;BME280;6383;50.830;7.210;2023-05-19T11:15:14;101482.06;;;21.13;33.02
12636;BME280;6383;50.830;7.210;2023-05-19T11:17:47;101475.19;;;21.19;31.96
12636;BME280;6383;50.830;7.210;2023-05-19T11:20:21;101464.31;;;21.26;32.56
12636;BME280;6383;50.830;7.210;2023-05-19T11:23:03;101468.91;;;21.34;33.52
12636;BME280;6383;50.830;7.210;2023-05-19T11:25:43;101476.25;;;21.42;32.88
12636;BME280;6383;50.830;7.210;2023-05-19T11:28:15;101471.38;;;21.52;32.44
12636;BME280;6383;50.830;7.210;2023-05-19T11:30:47;101472.50;;;21.63;32.48
12636;BME280;6383;50.830;7.210;2023-05-19T11:33:20;101470.34;;;21.72;32.08
12636;BME280;6383;50.830;7.210;2023-05-19T11:35:55;101455.56;;;21.80;30.71
12636;BME280;6383;50.830;7.210;2023-05-19T11:38:27;101452.59;;;21.89;31.36
12636;BME280;6383;50.830;7.210;2023-05-19T11:40:56;101454.38;;;21.97;32.17
12636;BME280;6383;50.830;7.210;2023-05-19T11:43:26;101449.06;;;22.04;31.73
12636;BME280;6383;50.830;7.210;2023-05-19T11:45:55;101452.41;;;22.09;30.27
12636;BME280;6383;50.830;7.210;2023-05-19T11:48:26;101447.72;;;22.13;31.02
12636;BME280;6383;50.830;7.210;2023-05-19T11:50:56;101441.47;;;22.16;30.34
12636;BME280;6383;50.830;7.210;2023-05-19T11:53:26;101430.03;;;22.18;30.87
12636;BME280;6383;50.830;7.210;2023-05-19T11:56:02;101434.06;;;22.21;30.75
12636;BME280;6383;50.830;7.210;2023-05-19T11:58:31;101425.75;;;22.21;30.20
12636;BME280;6383;50.830;7.210;2023-05-19T12:01:02;101420.19;;;22.21;30.30
12636;BME280;6383;50.830;7.210;2023-05-19T12:03:36;101427.00;;;22.23;31.41
12636;BME280;6383;50.830;7.210;2023-05-19T12:06:05;101420.34;;;22.28;31.08
12636;BME280;6383;50.830;7.210;2023-05-19T12:08:34;101416.16;;;22.34;31.30
12636;BME280;6383;50.830;7.210;2023-05-19T12:11:03;101424.22;;;22.39;30.96
12636;BME280;6383;50.830;7.210;2023-05-19T12:13:35;101427.50;;;22.44;31.82
12636;BME280;6383;50.830;7.210;2023-05-19T12:16:03;101420.44;;;22.47;30.35
12636;BME280;6383;50.830;7.210;2023-05-19T12:18:37;101414.97;;;22.50;30.16
12636;BME280;6383;50.830;7.210;2023-05-19T12:21:09;101406.22;;;22.48;28.95
12636;BME280;6383;50.830;7.210;2023-05-19T12:23:39;101407.91;;;22.53;31.13
12636;BME280;6383;50.830;7.210;2023-05-19T12:26:14;101401.63;;;22.56;30.17
12636;BME280;6383;50.830;7.210;2023-05-19T12:28:46;101394.19;;;22.60;30.96
12636;BME280;6383;50.830;7.210;2023-05-19T12:31:15;101392.31;;;22.64;30.40
12636;BME280;6383;50.830;7.210;2023-05-19T12:33:44;101396.41;;;22.70;30.59
12636;BME280;6383;50.830;7.210;2023-05-19T12:36:18;101393.34;;;22.75;31.18
12636;BME280;6383;50.830;7.210;2023-05-19T12:38:54;101393.53;;;22.82;30.92
12636;BME280;6383;50.830;7.210;2023-05-19T12:41:24;101394.41;;;22.86;30.91
12636;BME280;6383;50.830;7.210;2023-05-19T12:43:54;101392.44;;;22.87;30.45
12636;BME280;6383;50.830;7.210;2023-05-19T12:46:24;101379.72;;;22.86;29.95
12636;BME280;6383;50.830;7.210;2023-05-19T12:49:02;101378.13;;;22.85;29.81
12636;BME280;6383;50.830;7.210;2023-05-19T12:51:35;101388.03;;;22.86;31.10
12636;BME280;6383;50.830;7.210;2023-05-19T12:54:03;101384.47;;;22.85;30.41
12636;BME280;6383;50.830;7.210;2023-05-19T12:56:33;101384.03;;;22.83;29.81
12636;BME280;6383;50.830;7.210;2023-05-19T12:59:01;101388.78;;;22.83;30.40
12636;BME280;6383;50.830;7.210;2023-05-19T13:01:36;101382.44;;;22.82;30.45
12636;BME280;6383;50.830;7.210;2023-05-19T13:04:16;101382.56;;;22.90;29.90
12636;BME280;6383;50.830;7.210;2023-05-19T13:06:48;101381.13;;;22.96;30.03
12636;BME280;6383;50.830;7.210;2023-05-19T13:09:17;101375.22;;;22.97;28.75
12636;BME280;6383;50.830;7.210;2023-05-19T13:11:55;101374.47;;;23.00;28.73
12636;BME280;6383;50.830;7.210;2023-05-19T13:14:28;101373.75;;;23.03;29.15
12636;BME280;6383;50.830;7.210;2023-05-19T13:17:00;101364.31;;;23.08;28.79
12636;BME280;6383;50.830;7.210;2023-05-19T13:19:33;101362.06;;;23.13;28.66
12636;BME280;6383;50.830;7.210;2023-05-19T13:22:02;101360.94;;;23.18;30.12